createdAt,value
2018-07-24T00:00:07.843Z,3.40
2018-07-24T00:02:35.949Z,4.00
2018-07-24T00:05:04.667Z,3.73
2018-07-24T00:07:33.326Z,3.97
2018-07-24T00:10:02.711Z,3.93
2018-07-24T00:12:30.869Z,4.40
2018-07-24T00:14:58.881Z,3.60
2018-07-24T00:17:27.046Z,4.13
2018-07-24T00:19:54.753Z,3.80
2018-07-24T00:22:22.440Z,4.10
2018-07-24T00:24:50.130Z,4.10
2018-07-24T00:27:17.924Z,3.80
2018-07-24T00:29:45.611Z,3.53
2018-07-24T00:32:13.324Z,4.43
2018-07-24T00:34:41.280Z,3.80
2018-07-24T00:37:09.004Z,3.97
2018-07-24T00:39:37.552Z,3.77
2018-07-24T00:42:05.765Z,3.63
2018-07-24T00:44:33.637Z,4.17
2018-07-24T00:47:02.041Z,4.53
2018-07-24T00:49:29.704Z,4.17
2018-07-24T00:51:57.570Z,5.03
2018-07-24T00:54:25.747Z,4.30
2018-07-24T00:56:55.800Z,4.50
2018-07-24T00:59:23.514Z,4.53
2018-07-24T01:01:51.199Z,4.20
2018-07-24T01:04:18.862Z,4.10
2018-07-24T01:06:46.539Z,4.30
2018-07-24T01:09:14.299Z,4.00
2018-07-24T01:11:42.017Z,4.10
2018-07-24T01:14:10.090Z,4.37
2018-07-24T01:16:37.838Z,4.43
2018-07-24T01:19:05.532Z,4.03
2018-07-24T01:21:33.221Z,4.47
2018-07-24T01:24:00.965Z,4.27
2018-07-24T01:26:28.696Z,4.17
2018-07-24T01:28:56.382Z,4.40
2018-07-24T01:31:24.049Z,4.60
2018-07-24T01:33:51.712Z,4.40
2018-07-24T01:36:19.398Z,4.13
2018-07-24T01:38:47.101Z,4.17
2018-07-24T01:41:14.786Z,4.17
2018-07-24T01:43:42.459Z,4.90
2018-07-24T01:46:10.131Z,5.17
2018-07-24T01:48:37.781Z,4.77
2018-07-24T01:51:05.507Z,4.70
2018-07-24T01:53:33.215Z,4.67
2018-07-24T01:56:00.890Z,4.60
2018-07-24T01:58:28.565Z,4.80
2018-07-24T02:01:00.887Z,4.87
2018-07-24T02:03:28.559Z,4.40
2018-07-24T02:05:56.273Z,4.90
2018-07-24T02:08:23.965Z,5.07
2018-07-24T02:10:51.667Z,4.33
2018-07-24T02:13:19.411Z,4.73
2018-07-24T02:15:47.099Z,4.83
2018-07-24T02:18:14.851Z,5.13
2018-07-24T02:20:42.549Z,5.70
2018-07-24T02:23:10.269Z,4.87
2018-07-24T02:25:37.949Z,5.80
2018-07-24T02:28:06.558Z,5.10
2018-07-24T02:30:34.281Z,5.23
2018-07-24T02:33:02.003Z,5.30
2018-07-24T02:35:29.796Z,5.10
2018-07-24T02:37:57.542Z,6.00
2018-07-24T02:40:25.225Z,5.90
2018-07-24T02:42:52.931Z,5.93
2018-07-24T02:45:20.617Z,5.83
2018-07-24T02:47:48.286Z,6.30
2018-07-24T02:50:16.063Z,5.70
2018-07-24T02:52:43.773Z,6.20
2018-07-24T02:55:11.518Z,6.17
2018-07-24T02:57:39.243Z,6.10
2018-07-24T03:00:06.961Z,6.60
2018-07-24T03:02:34.641Z,6.27
2018-07-24T03:05:02.396Z,6.30
2018-07-24T03:07:30.118Z,6.57
2018-07-24T03:09:57.818Z,6.70
2018-07-24T03:12:25.534Z,6.77
2018-07-24T03:14:53.283Z,7.20
2018-07-24T03:17:21.211Z,6.30
2018-07-24T03:19:49.042Z,6.67
2018-07-24T03:22:16.726Z,6.60
2018-07-24T03:24:44.377Z,7.03
2018-07-24T03:27:12.038Z,6.80
2018-07-24T03:29:39.743Z,7.20
2018-07-24T03:32:07.430Z,6.60
2018-07-24T03:34:35.112Z,6.97
2018-07-24T03:37:02.810Z,6.60
2018-07-24T03:39:30.524Z,6.90
2018-07-24T03:41:58.221Z,7.07
2018-07-24T03:44:25.895Z,7.30
2018-07-24T03:46:53.558Z,7.70
2018-07-24T03:49:21.230Z,7.57
2018-07-24T03:51:48.930Z,7.30
2018-07-24T03:54:16.642Z,7.50
2018-07-24T03:56:44.317Z,6.70
2018-07-24T03:59:12.023Z,7.80
2018-07-24T04:01:39.714Z,8.03
2018-07-24T04:04:07.444Z,7.60
2018-07-24T04:06:35.155Z,7.63
2018-07-24T04:09:05.116Z,7.70
2018-07-24T04:11:32.794Z,7.43
2018-07-24T04:14:00.462Z,7.23
2018-07-24T04:16:28.168Z,8.40
2018-07-24T04:18:55.865Z,7.30
2018-07-24T04:21:23.554Z,7.70
2018-07-24T04:23:51.245Z,7.40
2018-07-24T04:26:18.940Z,7.80
2018-07-24T04:28:46.653Z,8.00
2018-07-24T04:31:14.585Z,7.63
2018-07-24T04:33:42.742Z,7.30
2018-07-24T04:36:10.673Z,7.80
2018-07-24T04:38:38.400Z,7.60
2018-07-24T04:41:06.233Z,7.60
2018-07-24T04:43:33.924Z,7.57
2018-07-24T04:46:01.667Z,7.20
2018-07-24T04:48:29.431Z,7.57
2018-07-24T04:50:57.105Z,8.00
2018-07-24T04:53:24.776Z,8.13
2018-07-24T04:55:52.451Z,7.80
2018-07-24T04:58:20.125Z,8.23
2018-07-24T05:00:47.820Z,7.83
2018-07-24T05:03:15.577Z,8.73
2018-07-24T05:05:43.240Z,8.50
2018-07-24T05:08:10.890Z,9.20
2018-07-24T05:10:38.573Z,9.33
2018-07-24T05:13:06.267Z,9.50
2018-07-24T05:15:33.930Z,9.33
2018-07-24T05:18:01.619Z,9.27
2018-07-24T05:20:29.298Z,10.53
2018-07-24T05:22:57.005Z,11.23
2018-07-24T05:25:24.693Z,10.97
2018-07-24T05:27:52.391Z,11.37
2018-07-24T05:30:20.063Z,11.73
2018-07-24T05:32:47.802Z,12.00
2018-07-24T05:35:15.521Z,11.57
2018-07-24T05:37:43.253Z,11.70
2018-07-24T05:40:11.038Z,12.20
2018-07-24T05:42:38.727Z,11.53
2018-07-24T05:45:06.503Z,12.53
2018-07-24T05:47:34.319Z,11.87
2018-07-24T05:50:02.023Z,12.53
2018-07-24T05:52:29.755Z,12.93
2018-07-24T05:54:57.514Z,11.70
2018-07-24T05:57:25.181Z,12.03
2018-07-24T05:59:52.898Z,13.13
2018-07-24T06:02:20.583Z,13.07
2018-07-24T06:04:48.571Z,12.40
2018-07-24T06:07:16.270Z,13.10
2018-07-24T06:09:43.982Z,12.33
2018-07-24T06:12:11.870Z,11.83
2018-07-24T06:14:39.547Z,11.00
2018-07-24T06:17:07.320Z,12.53
2018-07-24T06:19:34.979Z,11.43
2018-07-24T06:22:02.699Z,11.17
2018-07-24T06:24:30.439Z,11.77
2018-07-24T06:26:58.152Z,11.30
2018-07-24T06:29:25.869Z,12.57
2018-07-24T06:31:53.566Z,12.20
2018-07-24T06:34:21.266Z,13.10
2018-07-24T06:36:48.980Z,11.90
2018-07-24T06:39:16.680Z,12.07
2018-07-24T06:41:44.388Z,11.80
2018-07-24T06:44:12.285Z,12.70
2018-07-24T06:46:40.083Z,12.10
2018-07-24T06:49:08.206Z,12.60
2018-07-24T06:51:35.940Z,13.10
2018-07-24T06:54:03.810Z,12.60
2018-07-24T06:56:31.528Z,12.57
2018-07-24T06:58:59.622Z,12.93
2018-07-24T07:01:27.321Z,12.63
2018-07-24T07:03:55.011Z,12.67
2018-07-24T07:06:23.101Z,11.87
2018-07-24T07:08:50.878Z,12.17
2018-07-24T07:11:18.595Z,11.47
2018-07-24T07:13:46.307Z,12.47
2018-07-24T07:16:14.235Z,12.23
2018-07-24T07:18:41.974Z,11.33
2018-07-24T07:21:09.773Z,12.78
2018-07-24T07:23:38.198Z,11.63
2018-07-24T07:26:06.043Z,12.93
2018-07-24T07:28:33.741Z,10.87
2018-07-24T07:31:01.560Z,10.53
2018-07-24T07:33:29.223Z,11.10
2018-07-24T07:35:56.898Z,11.45
2018-07-24T07:38:24.642Z,11.73
2018-07-24T07:40:52.382Z,11.40
2018-07-24T07:43:20.084Z,11.25
2018-07-24T07:45:47.769Z,10.58
2018-07-24T07:48:15.480Z,11.73
2018-07-24T07:50:43.203Z,11.25
2018-07-24T07:53:10.909Z,10.15
2018-07-24T07:55:38.589Z,9.70
2018-07-24T07:58:06.569Z,9.98
2018-07-24T08:00:35.731Z,9.38
2018-07-24T08:03:03.647Z,8.40
2018-07-24T08:05:31.349Z,9.33
2018-07-24T08:07:59.086Z,8.10
2018-07-24T08:10:26.853Z,8.20
2018-07-24T08:12:54.594Z,8.03
2018-07-24T08:15:22.296Z,7.75
2018-07-24T08:17:50.039Z,7.08
2018-07-24T08:20:17.781Z,7.95
2018-07-24T08:22:45.506Z,7.00
2018-07-24T08:25:13.176Z,7.42
2018-07-24T08:27:40.866Z,6.60
2018-07-24T08:30:08.609Z,7.12
2018-07-24T08:32:36.287Z,6.95
2018-07-24T08:35:04.039Z,7.65
2018-07-24T08:37:31.777Z,7.70
2018-07-24T08:39:59.490Z,7.58
2018-07-24T08:42:29.019Z,7.50
2018-07-24T08:44:57.554Z,7.33
2018-07-24T08:47:26.460Z,6.10
2018-07-24T08:49:54.152Z,7.03
2018-07-24T08:52:21.868Z,6.83
2018-07-24T08:54:49.856Z,6.25
2018-07-24T08:57:17.398Z,6.35
2018-07-24T08:59:45.091Z,5.12
2018-07-24T09:02:12.849Z,4.30
2018-07-24T09:04:40.541Z,5.00
2018-07-24T09:07:08.314Z,5.42
2018-07-24T09:09:36.095Z,5.40
2018-07-24T09:12:03.823Z,4.33
2018-07-24T09:14:31.518Z,4.70
2018-07-24T09:16:59.215Z,5.62
2018-07-24T09:19:26.925Z,5.10
2018-07-24T09:21:54.581Z,5.47
2018-07-24T09:24:22.244Z,4.97
2018-07-24T09:26:49.933Z,5.42
2018-07-24T09:29:17.622Z,5.33
2018-07-24T09:31:45.303Z,5.12
2018-07-24T09:34:12.994Z,6.17
2018-07-24T09:36:41.128Z,5.95
2018-07-24T09:39:09.800Z,4.75
2018-07-24T09:41:37.988Z,5.65
2018-07-24T09:44:05.776Z,4.67
2018-07-24T09:46:33.475Z,4.47
2018-07-24T09:49:01.181Z,5.17
2018-07-24T09:51:28.883Z,5.30
2018-07-24T09:53:56.654Z,4.60
2018-07-24T09:56:24.339Z,4.87
2018-07-24T09:58:52.054Z,5.17
2018-07-24T10:01:25.411Z,6.10
2018-07-24T10:03:53.355Z,5.45
2018-07-24T10:06:21.243Z,4.97
2018-07-24T10:08:49.933Z,4.55
2018-07-24T10:11:17.674Z,4.35
2018-07-24T10:13:45.878Z,4.37
2018-07-24T10:16:13.561Z,5.00
2018-07-24T10:18:42.351Z,5.55
2018-07-24T10:21:10.650Z,6.22
2018-07-24T10:23:38.411Z,4.70
2018-07-24T10:26:06.413Z,5.50
2018-07-24T10:28:34.226Z,6.25
2018-07-24T10:31:01.964Z,5.62
2018-07-24T10:33:29.755Z,5.47
2018-07-24T10:35:57.541Z,5.20
2018-07-24T10:38:25.347Z,5.40
2018-07-24T10:40:53.068Z,5.75
2018-07-24T10:43:20.786Z,5.92
2018-07-24T10:45:48.465Z,6.00
2018-07-24T10:48:16.145Z,6.05
2018-07-24T10:50:43.826Z,5.80
2018-07-24T10:53:11.535Z,5.37
2018-07-24T10:55:39.305Z,5.67
2018-07-24T10:58:07.007Z,4.37
2018-07-24T11:00:34.722Z,4.87
2018-07-24T11:03:02.443Z,4.47
2018-07-24T11:05:30.210Z,5.03
2018-07-24T11:07:57.990Z,4.60
2018-07-24T11:10:25.710Z,5.67
2018-07-24T11:12:53.429Z,5.22
2018-07-24T11:15:21.119Z,5.30
2018-07-24T11:17:48.786Z,5.33
2018-07-24T11:20:16.499Z,4.62
2018-07-24T11:22:44.285Z,4.90
2018-07-24T11:25:11.893Z,5.05
2018-07-24T11:27:39.577Z,4.97
2018-07-24T11:30:07.270Z,4.75
2018-07-24T11:32:34.952Z,4.95
2018-07-24T11:35:02.703Z,5.15
2018-07-24T11:37:30.420Z,5.10
2018-07-24T11:39:58.170Z,5.22
2018-07-24T11:42:26.462Z,4.75
2018-07-24T11:44:54.239Z,4.35
2018-07-24T11:47:22.778Z,4.87
2018-07-24T11:49:52.248Z,5.00
2018-07-24T11:52:20.091Z,4.87
2018-07-24T11:54:47.802Z,5.00
2018-07-24T11:57:15.702Z,4.53
2018-07-24T11:59:44.495Z,4.45
2018-07-24T12:02:12.195Z,5.15
2018-07-24T12:04:39.936Z,4.17
2018-07-24T12:07:07.566Z,4.58
2018-07-24T12:09:35.734Z,4.80
2018-07-24T12:12:04.821Z,4.95
2018-07-24T12:14:32.702Z,4.40
2018-07-24T12:17:00.522Z,4.62
2018-07-24T12:19:28.236Z,4.83
2018-07-24T12:21:55.918Z,4.75
2018-07-24T12:24:23.581Z,4.72
2018-07-24T12:26:51.281Z,4.47
2018-07-24T12:29:19.357Z,4.53
2018-07-24T12:31:48.273Z,4.87
2018-07-24T12:34:16.961Z,4.60
2018-07-24T12:36:45.652Z,5.28
2018-07-24T12:39:14.247Z,4.30
2018-07-24T12:41:43.290Z,4.97
2018-07-24T12:44:11.234Z,4.37
2018-07-24T12:46:39.351Z,4.90
2018-07-24T12:49:11.025Z,4.75
2018-07-24T12:51:39.807Z,4.70
2018-07-24T12:54:07.481Z,4.95
2018-07-24T12:56:35.982Z,4.72
2018-07-24T12:59:03.740Z,4.33
2018-07-24T13:01:31.413Z,4.47
2018-07-24T13:03:59.096Z,4.37
2018-07-24T13:06:26.798Z,4.53
2018-07-24T13:08:54.510Z,4.55
2018-07-24T13:11:22.390Z,5.12
2018-07-24T13:13:50.214Z,4.90
2018-07-24T13:16:18.576Z,4.45
2018-07-24T13:18:46.337Z,4.70
2018-07-24T13:21:14.351Z,4.65
2018-07-24T13:23:42.106Z,4.92
2018-07-24T13:26:09.866Z,5.30
2018-07-24T13:28:37.608Z,5.08
2018-07-24T13:31:05.349Z,4.80
2018-07-24T13:33:33.073Z,4.85
2018-07-24T13:36:00.762Z,5.20
2018-07-24T13:38:28.734Z,4.72
2018-07-24T13:40:56.466Z,5.10
2018-07-24T13:43:24.448Z,4.50
2018-07-24T13:45:52.180Z,5.47
2018-07-24T13:48:19.900Z,5.25
2018-07-24T13:50:47.620Z,4.70
2018-07-24T13:53:15.368Z,5.35
2018-07-24T13:55:43.039Z,5.12
2018-07-24T13:58:10.851Z,5.62
2018-07-24T14:00:38.594Z,5.37
2018-07-24T14:03:06.350Z,4.95
2018-07-24T14:05:34.200Z,4.80
2018-07-24T14:08:01.842Z,4.60
2018-07-24T14:10:29.608Z,4.70
2018-07-24T14:12:57.325Z,4.75
2018-07-24T14:15:25.096Z,5.50
2018-07-24T14:17:52.827Z,4.80
2018-07-24T14:20:20.584Z,4.87
2018-07-24T14:22:48.303Z,4.83
2018-07-24T14:25:16.024Z,4.97
2018-07-24T14:27:43.783Z,4.90
2018-07-24T14:30:11.495Z,5.05
2018-07-24T14:32:39.310Z,4.65
2018-07-24T14:35:07.003Z,4.80
2018-07-24T14:37:34.792Z,4.75
2018-07-24T14:40:02.581Z,4.75
2018-07-24T14:42:30.312Z,5.10
2018-07-24T14:44:58.232Z,5.28
2018-07-24T14:47:25.981Z,5.05
2018-07-24T14:49:53.709Z,4.78
2018-07-24T14:52:21.510Z,5.33
2018-07-24T14:54:49.230Z,5.33
2018-07-24T14:57:16.957Z,5.42
2018-07-24T14:59:44.672Z,5.00
2018-07-24T15:02:12.416Z,4.67
2018-07-24T15:04:40.233Z,5.03
2018-07-24T15:07:07.945Z,5.10
2018-07-24T15:09:35.698Z,4.80
2018-07-24T15:12:03.471Z,4.83
2018-07-24T15:14:31.182Z,5.25
2018-07-24T15:16:58.912Z,5.22
2018-07-24T15:19:26.594Z,5.90
2018-07-24T15:21:54.354Z,5.62
2018-07-24T15:24:22.105Z,5.70
2018-07-24T15:26:49.859Z,5.35
2018-07-24T15:29:18.874Z,5.62
2018-07-24T15:31:46.712Z,5.53
2018-07-24T15:34:14.525Z,4.85
2018-07-24T15:36:42.203Z,5.22
2018-07-24T15:39:12.218Z,5.58
2018-07-24T15:41:40.376Z,5.12
2018-07-24T15:44:08.633Z,5.15
2018-07-24T15:46:37.706Z,5.25
2018-07-24T15:49:05.837Z,5.15
2018-07-24T15:51:34.004Z,5.00
2018-07-24T15:54:01.758Z,5.15
2018-07-24T15:56:29.497Z,5.30
2018-07-24T15:58:57.590Z,4.80
2018-07-24T16:01:26.014Z,5.12
2018-07-24T16:03:55.184Z,4.67
2018-07-24T16:06:23.018Z,5.03
2018-07-24T16:11:20.467Z,4.97
2018-07-24T16:13:48.189Z,5.37
2018-07-24T16:16:15.918Z,5.40
2018-07-24T16:18:43.640Z,5.00
2018-07-24T16:21:12.613Z,5.03
2018-07-24T16:23:40.297Z,5.22
2018-07-24T16:26:08.197Z,5.45
2018-07-24T16:28:35.890Z,5.20
2018-07-24T16:31:03.707Z,5.20
2018-07-24T16:33:31.432Z,5.00
2018-07-24T16:36:00.258Z,5.20
2018-07-24T16:38:28.046Z,5.40
2018-07-24T16:40:55.742Z,5.05
2018-07-24T16:43:23.470Z,5.90
2018-07-24T16:45:51.352Z,4.95
2018-07-24T16:48:20.055Z,5.00
2018-07-24T16:50:47.850Z,4.65
2018-07-24T16:53:15.770Z,5.30
2018-07-24T16:55:44.587Z,5.15
2018-07-24T16:58:12.301Z,4.92
2018-07-24T17:00:40.126Z,4.97
2018-07-24T17:03:08.049Z,5.22
2018-07-24T17:05:36.950Z,5.08
2018-07-24T17:08:05.028Z,4.80
2018-07-24T17:10:32.771Z,5.58
2018-07-24T17:13:00.455Z,5.50
2018-07-24T17:15:28.205Z,4.80
2018-07-24T17:17:55.914Z,5.30
2018-07-24T17:20:23.629Z,4.90
2018-07-24T17:22:51.335Z,4.85
2018-07-24T17:25:19.051Z,6.97
2018-07-24T17:27:46.826Z,5.50
2018-07-24T17:30:14.447Z,5.22
2018-07-24T17:32:42.178Z,5.08
2018-07-24T17:35:09.990Z,5.53
2018-07-24T17:37:38.433Z,5.10
2018-07-24T17:40:06.140Z,4.87
2018-07-24T17:42:33.840Z,5.35
2018-07-24T17:45:01.564Z,5.40
2018-07-24T17:47:29.277Z,5.15
2018-07-24T17:49:56.958Z,5.40
2018-07-24T17:52:24.662Z,5.55
2018-07-24T17:54:52.381Z,5.20
2018-07-24T17:57:20.298Z,4.92
2018-07-24T17:59:48.029Z,5.87
2018-07-24T18:02:15.666Z,5.03
2018-07-24T18:04:43.615Z,5.28
2018-07-24T18:07:12.141Z,4.60
2018-07-24T18:09:39.838Z,4.72
2018-07-24T18:12:07.854Z,4.62
2018-07-24T18:14:35.684Z,4.92
2018-07-24T18:17:03.435Z,5.40
2018-07-24T18:19:31.110Z,5.20
2018-07-24T18:21:58.834Z,5.20
2018-07-24T18:24:26.528Z,5.17
2018-07-24T18:26:54.195Z,5.45
2018-07-24T18:29:22.023Z,5.75
2018-07-24T18:31:49.732Z,5.58
2018-07-24T18:34:17.398Z,5.62
2018-07-24T18:36:45.130Z,5.10
2018-07-24T18:39:12.809Z,5.20
2018-07-24T18:41:40.504Z,5.28
2018-07-24T18:44:08.206Z,4.92
2018-07-24T18:46:35.877Z,5.30
2018-07-24T18:49:03.614Z,4.70
2018-07-24T18:51:31.320Z,5.25
2018-07-24T18:53:59.009Z,5.17
2018-07-24T18:56:26.688Z,4.78
2018-07-24T18:58:54.604Z,4.45
2018-07-24T19:01:22.294Z,4.83
2018-07-24T19:03:50.009Z,4.62
2018-07-24T19:06:17.692Z,4.25
2018-07-24T19:08:45.381Z,5.22
2018-07-24T19:11:13.156Z,5.37
2018-07-24T19:13:40.762Z,5.33
2018-07-24T19:16:10.040Z,4.97
2018-07-24T19:18:38.040Z,5.00
2018-07-24T19:21:05.778Z,4.95
2018-07-24T19:23:33.493Z,4.85
2018-07-24T19:26:01.222Z,4.92
2018-07-24T19:28:28.907Z,5.30
2018-07-24T19:30:56.617Z,5.17
2018-07-24T19:33:24.554Z,4.78
2018-07-24T19:35:53.008Z,4.72
2018-07-24T19:38:20.729Z,4.53
2018-07-24T19:40:48.418Z,4.72
2018-07-24T19:43:16.143Z,5.12
2018-07-24T19:45:43.901Z,4.72
2018-07-24T19:48:11.631Z,4.20
2018-07-24T19:50:39.333Z,4.30
2018-07-24T19:53:07.030Z,4.08
2018-07-24T19:55:34.734Z,3.72
2018-07-24T19:58:02.513Z,4.10
2018-07-24T20:00:30.261Z,4.00
2018-07-24T20:02:58.004Z,3.52
2018-07-24T20:05:25.674Z,3.85
2018-07-24T20:07:53.373Z,3.58
2018-07-24T20:10:21.144Z,3.50
2018-07-24T20:12:48.810Z,4.15
2018-07-24T20:15:19.010Z,3.72
2018-07-24T20:17:46.903Z,3.80
2018-07-24T20:20:15.392Z,3.30
2018-07-24T20:22:43.215Z,3.15
2018-07-24T20:25:10.943Z,3.33
2018-07-24T20:27:38.658Z,3.22
2018-07-24T20:30:06.419Z,3.33
2018-07-24T20:32:34.146Z,3.40
2018-07-24T20:35:01.941Z,3.85
2018-07-24T20:37:29.658Z,3.55
2018-07-24T20:39:57.362Z,3.60
2018-07-24T20:42:25.051Z,3.37
2018-07-24T20:44:52.753Z,3.50
2018-07-24T20:47:20.450Z,3.65
2018-07-24T20:49:48.250Z,3.35
2018-07-24T20:52:15.983Z,3.15
2018-07-24T20:54:43.706Z,3.55
2018-07-24T20:57:11.413Z,3.15
2018-07-24T20:59:39.115Z,3.27
2018-07-24T21:02:07.151Z,3.50
2018-07-24T21:04:34.888Z,3.37
2018-07-24T21:07:02.586Z,3.10
2018-07-24T21:09:30.284Z,3.22
2018-07-24T21:11:57.976Z,3.27
2018-07-24T21:14:25.654Z,2.75
2018-07-24T21:16:53.359Z,3.02
2018-07-24T21:19:21.167Z,3.02
2018-07-24T21:21:48.898Z,3.22
2018-07-24T21:24:16.642Z,2.83
2018-07-24T21:26:44.333Z,2.60
2018-07-24T21:29:12.046Z,2.92
2018-07-24T21:31:39.749Z,2.87
2018-07-24T21:34:07.492Z,2.60
2018-07-24T21:36:35.190Z,2.65
2018-07-24T21:39:04.934Z,2.85
2018-07-24T21:41:32.627Z,2.60
2018-07-24T21:44:00.330Z,2.98
2018-07-24T21:46:28.041Z,2.87
2018-07-24T21:48:55.833Z,2.40
2018-07-24T21:51:23.434Z,2.60
2018-07-24T21:53:51.163Z,2.60
2018-07-24T21:56:18.896Z,2.62
2018-07-24T21:58:46.626Z,2.08
2018-07-24T22:01:14.355Z,2.20
2018-07-24T22:03:42.475Z,2.72
2018-07-24T22:06:10.240Z,2.33
2018-07-24T22:08:38.354Z,2.30
2018-07-24T22:11:06.228Z,2.50
2018-07-24T22:13:34.398Z,2.45
2018-07-24T22:16:02.127Z,2.30
2018-07-24T22:18:29.875Z,2.58
2018-07-24T22:20:57.576Z,2.40
2018-07-24T22:23:25.285Z,2.37
2018-07-24T22:25:52.982Z,2.72
2018-07-24T22:28:20.702Z,2.70
2018-07-24T22:30:48.428Z,2.52
2018-07-24T22:33:16.115Z,2.40
2018-07-24T22:35:43.814Z,2.70
2018-07-24T22:38:11.552Z,2.83
2018-07-24T22:40:39.253Z,2.90
2018-07-24T22:43:06.986Z,2.52
2018-07-24T22:45:34.685Z,2.50
2018-07-24T22:48:02.406Z,2.50
2018-07-24T22:50:30.190Z,2.77
2018-07-24T22:52:57.907Z,2.65
2018-07-24T22:55:25.620Z,2.75
2018-07-24T22:57:53.578Z,2.52
2018-07-24T23:00:21.269Z,3.08
2018-07-24T23:02:48.972Z,2.95
2018-07-24T23:05:16.873Z,3.10
2018-07-24T23:07:44.589Z,2.95
2018-07-24T23:10:12.303Z,3.20
2018-07-24T23:12:40.157Z,3.08
2018-07-24T23:15:07.841Z,3.20
2018-07-24T23:17:35.559Z,3.15
2018-07-24T23:20:03.325Z,3.00
2018-07-24T23:22:31.042Z,3.27
2018-07-24T23:24:58.802Z,3.23
2018-07-24T23:27:26.524Z,3.30
2018-07-24T23:29:54.226Z,3.23
2018-07-24T23:32:21.913Z,3.52
2018-07-24T23:34:49.635Z,3.13
2018-07-24T23:37:17.358Z,3.30
2018-07-24T23:39:45.035Z,3.20
2018-07-24T23:42:12.729Z,3.90
2018-07-24T23:44:40.494Z,3.33
2018-07-24T23:47:08.181Z,3.80
2018-07-24T23:49:35.877Z,3.83
2018-07-24T23:52:03.612Z,3.23
2018-07-24T23:54:31.277Z,3.67
2018-07-24T23:56:59.089Z,4.00
2018-07-24T23:59:27.066Z,3.70
